In Rescue
 
Open Full Screen Window  High Contrast Mode
Wind Gusting 15 knots
08
May 20, 2019 3:26 PM EDT
Weather Information
Wind Direction
  310 °
Wind Speed
  08 kt (9 mph)
Wind Gust
  15 kt (17 mph)
Altimeter
30.06 in
Visibility
10 SM
Temperature
11° C
52° F
Dewpoint
05° C
41° F
Humidity
67%
1hr Rain Fall
00.00 in.
24hr Rain Fall
00.03 in.
Sky Condition
Overcast @ 2,300 ft
MVFR

METAR KIRS 201926Z AUTO 31008G15KT 10SM OVC023 11/05 A3006 RMK AO2 T01070051

FAA Disclaimer: The data displayed is for advisory purposes only and is not to be used for flight planning or operations.